Řízení letového provozu České republiky
OPMET data - Ceska Republika Aktualizace: 17.11.2017 23:06:05  UTC
SIGMET / AIRMET - NIL
Warning / Vystraha - NIL
 
METAR / SPECI
SPECI LKCV 172241Z 23002KT 1500 BR VCFG SKC 01/00 Q1024 =
METAR COR LKKB 172200Z 23003KT 210V330 4000 MIFG BR NSC 02/02 Q1024 =
METAR LKKU NIL
METAR LKKV 172300Z VRB02KT 1100 R29/1900U BR SCT002 OVC005 02/02 Q1022=
METAR LKLN NIL
METAR LKMT 172300Z 01006KT 3000 BR FEW005 OVC009 04/04 Q1023 NOSIG=
METAR LKNA 172200Z 33005KT 6000 OVC009 03/03 Q1023=
METAR COR LKPD 172200Z 29004KT 7000 SCT004 BKN017 04/03 Q1024 =
SPECI LKPR 172304Z 22006KT 2400 BR FEW002 M01/M01 Q1023 RMK REG QNH 1019=
METAR LKTB 172300Z 32005KT 9000 BKN029 05/04 Q1023 NOSIG=
METAR LKVO NIL
TAF
TAF AMD LKCV 171700Z 1718/1818 30006KT 8000 BR SCT025      TEMPO 1718/1720 4000 BR BKN006      BECMG 1800/1802 VRB02KT 4000 BR NSC      TEMPO 1802/1809 3000 BR BKN008      PROB40 TEMPO 1803/1808 0500 FZFG VV002      BECMG 1809/1811 24008KT 6000 BKN015=
TAF AMD LKKB 171715Z 1718/1818 31002KT 9999 BKN030      BECMG 1720/1722 VRB02KT SCT030      TEMPO 1800/1807 3000 BR BKN005      BECMG 1802/1804 0800 FZFG OVC003      TEMPO 1803/1807 0400 FZFG BKN001      BECMG 1805/1807 24006KT      BECMG 1808/1810 9999 BKN025      BECMG 1814/1816 25010G20KT=
TAF LKKU NIL
TAF LKKV 171700Z 1718/1900 VRB02KT 0600 FG BKN002      BECMG 1718/1720 0300 FG VV001      TEMPO 1807/1809 0600 FZFG BKN002      BECMG 1809/1811 25010KT 8000 SCT005 BKN017      TEMPO 1818/1900 3000 SHSN BKN006=
TAF LKLN NIL
TAF AMD LKMT 172150Z 1721/1900 VRB02KT 1200 BR OVC005      TEMPO 1721/1723 0600 -RA FG OVC003      TEMPO 1723/1808 0600 FG OVC003      PROB30 TEMPO 1803/1808 0400 FG OVC002      BECMG 1810/1812 21008KT 9999 BKN030      TEMPO 1812/1818 SCT040=
TAF COR LKNA 171700Z 1718/1818 33006KT 3000 BR SCT020 OVC030      TEMPO 1718/1800 2000 SHRA BKN010      PROB40 TEMPO 1802/1808 0800 FZFG VV002      BECMG 1808/1810 28010KT 8000 BKN030=
TAF LKPD 171700Z 1718/1818 28006KT 5000 BR BKN008      BECMG 1721/1800 2000 BR NSC      TEMPO 1801/1808 VRB02KT 0400 FZFG VV001      BECMG 1809/1812 25008KT 7000 NSW BKN025=
TAF LKPR 171700Z 1718/1900 33004KT 9999 BKN025      BECMG 1718/1721 VRB02KT SCT025      BECMG 1800/1802 3000 BR SCT005      BECMG 1802/1804 0800 FZFG OVC003      TEMPO 1804/1808 0400 FZFG BKN001      BECMG 1808/1810 24010KT 9999 BKN030      TEMPO 1810/1818 26016KT      BECMG 1818/1821 BKN020      TEMPO 1821/1900 16015G30KT 3000 SHSNRA BKN005=
TAF LKTB 171700Z 1718/1900 33009KT 6000 BKN030      TEMPO 1718/1803 3000 -RA BKN020      TEMPO 1803/1808 1500 BR SCT005      TEMPO 1809/1821 9999 SCT040=
TAF LKVO NIL